Time;durP1;ratioP1;P1;durP2;ratioP2;P2;SDS_P1;SDS_P2;PMS_P1;PMS_P2;Temp;Humidity;BMP_temperature;BMP_pressure;BME280_temperature;BME280_humidity;BME280_pressure;Samples;Min_cycle;Max_cycle;Signal;HPM_P1;HPM_P2
2023/10/26 00:00:28;;;;;;;18.75;11.52;;;9.70;99.90;;;;;;5035723;28;20045;-63
2023/10/26 00:02:54;;;;;;;16.65;11.93;;;9.70;99.90;;;;;;5030315;28;20531;-63
2023/10/26 00:05:19;;;;;;;24.58;12.27;;;9.70;99.90;;;;;;5035955;28;20041;-63
2023/10/26 00:07:45;;;;;;;18.73;11.95;;;9.70;99.90;;;;;;5027961;28;20047;-62
2023/10/26 00:10:11;;;;;;;19.42;11.88;;;9.70;99.90;;;;;;5030993;28;20484;-63
2023/10/26 00:12:36;;;;;;;19.63;13.65;;;9.70;99.90;;;;;;5030998;28;20526;-63
2023/10/26 00:15:03;;;;;;;20.50;13.90;;;9.70;99.90;;;;;;5024591;28;20384;-63
2023/10/26 00:17:29;;;;;;;18.90;13.75;;;9.70;99.90;;;;;;5031826;28;20071;-63
2023/10/26 00:19:54;;;;;;;21.50;14.20;;;9.70;99.90;;;;;;5045396;28;20036;-63
2023/10/26 00:22:23;;;;;;;24.30;14.48;;;9.70;99.90;;;;;;5042921;28;20045;-62
2023/10/26 00:24:50;;;;;;;26.67;16.88;;;9.70;99.90;;;;;;5032342;28;20053;-62
2023/10/26 00:27:17;;;;;;;22.55;15.75;;;9.70;99.90;;;;;;5050910;28;20079;-61
2023/10/26 00:29:42;;;;;;;25.73;16.05;;;9.70;99.90;;;;;;5043324;28;20037;-63
2023/10/26 00:32:09;;;;;;;26.05;16.48;;;9.70;99.90;;;;;;5050613;28;20533;-63
2023/10/26 00:34:35;;;;;;;31.80;17.75;;;9.70;99.90;;;;;;5027401;28;20113;-62
2023/10/26 00:37:01;;;;;;;33.25;17.88;;;9.80;99.90;;;;;;5014054;28;20491;-63
2023/10/26 00:39:27;;;;;;;26.90;18.52;;;9.70;99.90;;;;;;5050051;28;20070;-63
2023/10/26 00:41:55;;;;;;;30.33;19.70;;;9.70;99.90;;;;;;5050401;28;20036;-63
2023/10/26 00:44:21;;;;;;;31.35;19.67;;;9.70;99.90;;;;;;5031625;28;20097;-63
2023/10/26 00:46:48;;;;;;;29.85;20.35;;;9.70;99.90;;;;;;5032159;28;20044;-63
2023/10/26 00:49:16;;;;;;;32.42;20.40;;;9.70;99.90;;;;;;5034611;28;20094;-63
2023/10/26 00:51:47;;;;;;;36.15;22.20;;;9.70;99.90;;;;;;5039207;28;20060;-63
2023/10/26 00:54:18;;;;;;;41.25;22.52;;;9.70;99.90;;;;;;5034408;28;20414;-63
2023/10/26 00:56:45;;;;;;;36.08;23.10;;;9.70;99.90;;;;;;5050709;28;20444;-62
2023/10/26 00:59:11;;;;;;;35.28;23.50;;;9.70;99.90;;;;;;5033221;28;20041;-63
2023/10/26 01:01:37;;;;;;;37.30;24.10;;;9.70;99.90;;;;;;5017607;28;20100;-63
2023/10/26 01:04:06;;;;;;;42.67;24.88;;;9.70;99.90;;;;;;5032232;28;20399;-63
2023/10/26 01:06:32;;;;;;;41.70;25.27;;;9.70;99.90;;;;;;5049553;28;20498;-63
2023/10/26 01:08:58;;;;;;;39.80;24.85;;;9.70;99.90;;;;;;5049520;28;20538;-63
2023/10/26 01:11:23;;;;;;;45.47;26.35;;;9.70;99.90;;;;;;5047427;28;20045;-63
2023/10/26 01:13:50;;;;;;;45.80;27.92;;;9.70;99.90;;;;;;5050802;28;20044;-61
2023/10/26 01:16:16;;;;;;;41.58;26.98;;;9.70;99.90;;;;;;5052643;28;20051;-63
2023/10/26 01:18:42;;;;;;;45.15;27.60;;;9.70;99.90;;;;;;5023774;28;20048;-64
2023/10/26 01:21:09;;;;;;;49.35;29.05;;;9.80;99.90;;;;;;5033152;28;20399;-63
2023/10/26 01:23:35;;;;;;;45.08;26.75;;;9.70;99.90;;;;;;5048624;28;20043;-63
2023/10/26 01:26:01;;;;;;;54.10;28.88;;;9.80;99.90;;;;;;5050677;28;20484;-63
2023/10/26 01:28:27;;;;;;;46.25;28.20;;;9.80;99.90;;;;;;5029402;28;20045;-63
2023/10/26 01:30:53;;;;;;;48.33;29.40;;;9.70;99.90;;;;;;5030760;28;20463;-61
2023/10/26 01:33:19;;;;;;;50.10;29.85;;;9.80;99.90;;;;;;5040723;28;20072;-62
2023/10/26 01:35:46;;;;;;;51.38;30.20;;;9.70;99.90;;;;;;5041025;28;20111;-63
2023/10/26 01:38:14;;;;;;;54.63;30.98;;;9.80;99.90;;;;;;5039917;28;20160;-63
2023/10/26 01:40:40;;;;;;;54.35;31.98;;;9.80;99.90;;;;;;5040167;28;20045;-63
2023/10/26 01:43:06;;;;;;;47.70;30.85;;;9.80;99.90;;;;;;5036146;28;20041;-64
2023/10/26 01:45:32;;;;;;;53.58;30.90;;;9.80;99.90;;;;;;5038198;28;20382;-63
2023/10/26 01:48:04;;;;;;;56.42;31.88;;;9.80;99.90;;;;;;5040302;28;20044;-63
2023/10/26 01:50:31;;;;;;;51.13;29.83;;;9.80;99.90;;;;;;5040588;28;20068;-63
2023/10/26 01:52:57;;;;;;;54.28;30.77;;;9.80;99.90;;;;;;5020414;28;20057;-62
2023/10/26 01:55:23;;;;;;;51.53;31.00;;;9.80;99.90;;;;;;5042850;28;20095;-63
2023/10/26 01:57:49;;;;;;;53.45;30.58;;;9.80;99.90;;;;;;5022725;28;20033;-63
2023/10/26 02:00:15;;;;;;;51.40;31.35;;;9.80;99.90;;;;;;5030781;28;20058;-63
2023/10/26 02:02:41;;;;;;;47.20;29.08;;;9.80;99.90;;;;;;5048745;28;20094;-62
2023/10/26 02:05:07;;;;;;;50.97;30.20;;;9.80;99.90;;;;;;5032592;28;20069;-63
2023/10/26 02:07:33;;;;;;;45.70;28.55;;;9.80;99.90;;;;;;5027727;28;20090;-62
2023/10/26 02:10:02;;;;;;;51.13;28.40;;;9.80;99.90;;;;;;5038246;28;20053;-63
2023/10/26 02:12:28;;;;;;;42.95;26.75;;;9.80;99.90;;;;;;5047657;28;20515;-63
2023/10/26 02:14:53;;;;;;;37.83;25.73;;;9.70;99.90;;;;;;5030929;28;20124;-63
2023/10/26 02:17:19;;;;;;;40.70;26.50;;;9.70;99.90;;;;;;5049045;28;20593;-63
2023/10/26 02:19:45;;;;;;;42.13;25.70;;;9.70;99.90;;;;;;5030698;28;20036;-62
2023/10/26 02:22:11;;;;;;;42.20;26.95;;;9.70;99.90;;;;;;5031273;28;20037;-64
2023/10/26 02:24:36;;;;;;;44.75;26.75;;;9.70;99.90;;;;;;5025286;28;20507;-63
2023/10/26 02:27:02;;;;;;;44.05;27.50;;;9.70;99.90;;;;;;5044825;28;20041;-63
2023/10/26 02:29:28;;;;;;;40.25;27.08;;;9.70;99.90;;;;;;5030692;28;20037;-62
2023/10/26 02:31:53;;;;;;;41.75;26.13;;;9.70;99.90;;;;;;5024095;28;20041;-63
2023/10/26 02:34:19;;;;;;;44.85;27.92;;;9.70;99.90;;;;;;5050046;28;20036;-63
2023/10/26 02:36:45;;;;;;;39.22;25.83;;;9.60;99.90;;;;;;5047422;28;20091;-63
2023/10/26 02:39:10;;;;;;;35.95;24.70;;;9.60;99.90;;;;;;5048317;28;20068;-64
2023/10/26 02:41:36;;;;;;;36.80;24.63;;;9.60;99.90;;;;;;5049035;28;20031;-63
2023/10/26 02:44:02;;;;;;;44.85;24.73;;;9.60;99.90;;;;;;5038895;28;20049;-63
2023/10/26 02:46:28;;;;;;;38.38;24.55;;;9.60;99.90;;;;;;5049171;28;20053;-63
2023/10/26 02:48:54;;;;;;;35.40;24.20;;;9.60;99.90;;;;;;5030577;28;20122;-63
2023/10/26 02:51:19;;;;;;;43.15;26.65;;;9.60;99.90;;;;;;5029468;28;20057;-62
2023/10/26 02:53:45;;;;;;;37.67;25.55;;;9.60;99.90;;;;;;5046020;28;20431;-63
2023/10/26 02:56:11;;;;;;;42.20;25.63;;;9.50;99.90;;;;;;5039261;28;20069;-64
2023/10/26 02:58:37;;;;;;;38.78;26.65;;;9.50;99.90;;;;;;5030579;28;20078;-63
2023/10/26 03:01:03;;;;;;;43.80;26.85;;;9.50;99.90;;;;;;4995301;28;20107;-62
2023/10/26 03:03:28;;;;;;;44.30;27.90;;;9.50;99.90;;;;;;5038810;28;20041;-63
2023/10/26 03:05:57;;;;;;;48.72;28.13;;;9.50;99.90;;;;;;5039365;28;20040;-63
2023/10/26 03:08:23;;;;;;;45.65;27.20;;;9.50;99.90;;;;;;5020485;28;20049;-62
2023/10/26 03:10:49;;;;;;;47.38;27.55;;;9.50;99.90;;;;;;5005562;28;20391;-62
2023/10/26 03:13:14;;;;;;;47.97;28.38;;;9.40;99.90;;;;;;5035611;28;20040;-63
2023/10/26 03:15:40;;;;;;;43.35;26.77;;;9.40;99.90;;;;;;5038892;28;20086;-63
2023/10/26 03:18:06;;;;;;;40.40;27.27;;;9.40;99.90;;;;;;5039761;28;20049;-63
2023/10/26 03:20:32;;;;;;;48.72;27.63;;;9.40;99.90;;;;;;5039213;28;20521;-62
2023/10/26 03:22:58;;;;;;;44.15;28.08;;;9.40;99.90;;;;;;5038022;28;20466;-63
2023/10/26 03:25:25;;;;;;;43.10;27.48;;;9.50;99.90;;;;;;5038505;28;20128;-64
2023/10/26 03:27:51;;;;;;;39.47;26.30;;;9.50;99.90;;;;;;5038639;28;20136;-63
2023/10/26 03:30:17;;;;;;;39.80;25.52;;;9.40;99.90;;;;;;5046276;28;20515;-63
2023/10/26 03:32:44;;;;;;;36.65;25.25;;;9.40;99.90;;;;;;5047003;28;20041;-63
2023/10/26 03:35:10;;;;;;;40.03;26.65;;;9.40;99.90;;;;;;5030951;28;20414;-63
2023/10/26 03:37:36;;;;;;;36.83;25.55;;;9.40;99.90;;;;;;5029384;28;20049;-63
2023/10/26 03:40:04;;;;;;;41.83;26.65;;;9.40;99.90;;;;;;5029098;28;20132;-63
2023/10/26 03:42:29;;;;;;;37.60;25.08;;;9.40;99.90;;;;;;5029290;28;20055;-63
2023/10/26 03:44:55;;;;;;;40.90;25.77;;;9.40;99.90;;;;;;5029835;28;20040;-63
2023/10/26 03:47:22;;;;;;;40.30;26.75;;;9.40;99.90;;;;;;5013496;28;20048;-63
2023/10/26 03:49:51;;;;;;;40.17;27.20;;;9.40;99.90;;;;;;5031843;28;20064;-64
2023/10/26 03:52:19;;;;;;;41.22;26.48;;;9.40;99.90;;;;;;5052650;28;20102;-63
2023/10/26 03:54:45;;;;;;;45.10;26.67;;;9.40;99.90;;;;;;5053209;28;20454;-63
2023/10/26 03:57:10;;;;;;;42.97;28.15;;;9.40;99.90;;;;;;5035608;28;20087;-63
2023/10/26 03:59:36;;;;;;;42.97;28.05;;;9.50;99.90;;;;;;5053309;28;21455;-63
2023/10/26 04:02:02;;;;;;;44.33;28.48;;;9.40;99.90;;;;;;5035574;28;20055;-62
2023/10/26 04:04:28;;;;;;;45.95;29.27;;;9.40;99.90;;;;;;5051723;28;20079;-63
2023/10/26 04:06:54;;;;;;;51.97;29.50;;;9.40;99.90;;;;;;5026638;28;20048;-63
2023/10/26 04:09:20;;;;;;;53.25;29.85;;;9.40;99.90;;;;;;5051912;28;20073;-62
2023/10/26 04:11:45;;;;;;;46.70;29.13;;;9.40;99.90;;;;;;5054018;28;20072;-63
2023/10/26 04:14:11;;;;;;;54.60;30.42;;;9.40;99.90;;;;;;5054388;28;20094;-63
2023/10/26 04:16:37;;;;;;;51.40;29.80;;;9.40;99.90;;;;;;5054050;28;20044;-62
2023/10/26 04:19:03;;;;;;;46.78;28.83;;;9.40;99.90;;;;;;5034195;28;20060;-63
2023/10/26 04:21:29;;;;;;;51.17;29.05;;;9.40;99.90;;;;;;5051559;28;20066;-63
2023/10/26 04:23:55;;;;;;;47.42;28.17;;;9.40;99.90;;;;;;5051882;28;20758;-63
2023/10/26 04:26:20;;;;;;;45.70;27.77;;;9.30;99.90;;;;;;5054222;28;20746;-62
2023/10/26 04:28:46;;;;;;;54.72;27.27;;;9.40;99.90;;;;;;5052636;28;20041;-63
2023/10/26 04:31:12;;;;;;;45.08;28.40;;;9.30;99.90;;;;;;5019372;28;20124;-63
2023/10/26 04:33:37;;;;;;;44.72;26.55;;;9.30;99.90;;;;;;5052864;28;20055;-63
2023/10/26 04:36:04;;;;;;;44.88;27.77;;;9.30;99.90;;;;;;5046197;28;20446;-63
2023/10/26 04:38:30;;;;;;;47.60;27.27;;;9.30;99.90;;;;;;5038088;28;20125;-61
2023/10/26 04:40:58;;;;;;;49.75;28.05;;;9.30;99.90;;;;;;5037685;28;20048;-63
2023/10/26 04:43:24;;;;;;;49.50;27.40;;;9.30;99.90;;;;;;5053443;28;20041;-63
2023/10/26 04:45:50;;;;;;;47.97;28.40;;;9.30;99.90;;;;;;5026973;28;20051;-63
2023/10/26 04:48:17;;;;;;;46.33;29.08;;;9.30;99.90;;;;;;5052873;28;20049;-63
2023/10/26 04:50:43;;;;;;;50.53;27.92;;;9.30;99.90;;;;;;5053600;28;20045;-62
2023/10/26 04:53:09;;;;;;;42.88;27.70;;;9.30;99.90;;;;;;5053212;28;20040;-62
2023/10/26 04:55:35;;;;;;;46.85;28.48;;;9.30;99.90;;;;;;5032384;28;20547;-63
2023/10/26 04:58:02;;;;;;;52.53;29.67;;;9.30;99.90;;;;;;5051827;28;20132;-63
2023/10/26 05:00:28;;;;;;;45.33;28.92;;;9.20;99.90;;;;;;5049170;28;20037;-63
2023/10/26 05:02:53;;;;;;;41.30;26.65;;;9.30;99.90;;;;;;5040453;28;20106;-63
2023/10/26 05:05:19;;;;;;;40.08;25.13;;;9.30;99.90;;;;;;5051805;28;20049;-63
2023/10/26 05:07:45;;;;;;;42.85;26.83;;;9.20;99.90;;;;;;5049487;28;20411;-63
2023/10/26 05:10:12;;;;;;;42.90;27.13;;;9.20;99.90;;;;;;5041852;28;20088;-60
2023/10/26 05:12:38;;;;;;;42.83;26.27;;;9.20;99.90;;;;;;5028805;28;20415;-63
2023/10/26 05:15:04;;;;;;;40.63;26.25;;;9.20;99.90;;;;;;5049467;28;20124;-62
2023/10/26 05:17:30;;;;;;;43.65;26.55;;;9.20;99.90;;;;;;5032776;28;20037;-63
2023/10/26 05:19:57;;;;;;;43.20;26.75;;;9.10;99.90;;;;;;5032787;28;20427;-63
2023/10/26 05:22:22;;;;;;;44.92;27.42;;;9.10;99.90;;;;;;5047891;28;20037;-63
2023/10/26 05:24:48;;;;;;;41.30;26.50;;;9.10;99.90;;;;;;5049675;28;20053;-63
2023/10/26 05:27:18;;;;;;;45.92;26.42;;;9.00;99.90;;;;;;5043079;28;20033;-63
2023/10/26 05:29:44;;;;;;;44.88;27.50;;;9.10;99.90;;;;;;5026473;28;20045;-62
2023/10/26 05:32:10;;;;;;;45.40;26.83;;;9.00;99.90;;;;;;5051295;28;20060;-62
2023/10/26 05:34:35;;;;;;;43.53;27.05;;;9.00;99.90;;;;;;5041848;28;20052;-62
2023/10/26 05:37:01;;;;;;;45.00;27.25;;;9.00;99.90;;;;;;5024139;28;20047;-62
2023/10/26 05:39:27;;;;;;;41.67;26.75;;;9.00;99.90;;;;;;5047168;28;20033;-62
2023/10/26 05:41:52;;;;;;;47.55;28.45;;;9.00;99.90;;;;;;5030536;28;20135;-63
2023/10/26 05:44:18;;;;;;;44.70;26.27;;;9.00;99.90;;;;;;5049103;28;20124;-63
2023/10/26 05:46:44;;;;;;;43.25;25.55;;;9.00;99.90;;;;;;5022331;28;20163;-63
2023/10/26 05:49:09;;;;;;;44.28;26.13;;;9.10;99.90;;;;;;5046387;28;20527;-63
2023/10/26 05:51:35;;;;;;;46.75;27.95;;;9.10;99.90;;;;;;5031048;28;20518;-63
2023/10/26 05:54:01;;;;;;;43.85;26.58;;;9.10;99.90;;;;;;5027987;28;20099;-62
2023/10/26 05:56:27;;;;;;;42.70;25.92;;;9.00;99.90;;;;;;5025055;28;20056;-63
2023/10/26 05:58:52;;;;;;;43.55;26.48;;;9.00;99.90;;;;;;5031140;28;20055;-63
2023/10/26 06:01:18;;;;;;;41.80;24.77;;;9.00;99.90;;;;;;5031263;28;20411;-63
2023/10/26 06:03:44;;;;;;;44.65;27.90;;;9.00;99.90;;;;;;5043817;28;20053;-63
2023/10/26 06:06:10;;;;;;;44.53;26.20;;;9.00;99.90;;;;;;5019778;28;20048;-63
2023/10/26 06:08:37;;;;;;;44.72;26.98;;;9.00;99.90;;;;;;5049057;28;20044;-64
2023/10/26 06:11:03;;;;;;;41.22;25.63;;;9.00;99.90;;;;;;5025826;28;20111;-63
2023/10/26 06:13:29;;;;;;;38.75;24.92;;;8.90;99.90;;;;;;5032124;28;20549;-63
2023/10/26 06:15:55;;;;;;;36.17;22.92;;;8.90;99.90;;;;;;5030716;28;20044;-64
2023/10/26 06:18:21;;;;;;;40.20;22.67;;;8.80;99.90;;;;;;5048712;28;20029;-63
2023/10/26 06:20:59;;;;;;;36.78;22.38;;;8.70;99.90;;;;;;5031193;28;20076;-63
2023/10/26 06:23:27;;;;;;;61.65;26.90;;;8.70;99.90;;;;;;5044657;28;20036;-63
2023/10/26 06:26:00;;;;;;;50.80;27.83;;;8.70;99.90;;;;;;5025493;28;20354;-63
2023/10/26 06:28:27;;;;;;;52.63;29.27;;;8.70;99.90;;;;;;5048439;28;20037;-63
2023/10/26 06:30:54;;;;;;;51.33;28.42;;;8.70;99.90;;;;;;5037456;28;20048;-63
2023/10/26 06:33:20;;;;;;;53.90;30.40;;;8.70;99.90;;;;;;5030734;28;20428;-63
2023/10/26 06:35:46;;;;;;;94.22;32.25;;;8.70;99.90;;;;;;5048263;28;20115;-63
2023/10/26 06:38:11;;;;;;;70.32;31.20;;;8.70;99.90;;;;;;5006270;28;20033;-62
2023/10/26 06:40:37;;;;;;;94.50;31.90;;;8.70;99.90;;;;;;5044710;28;20551;-63
2023/10/26 06:43:03;;;;;;;73.30;31.02;;;8.70;99.90;;;;;;5022572;28;20044;-63
2023/10/26 06:45:29;;;;;;;161.98;33.90;;;8.80;99.90;;;;;;5041024;28;20045;-62
2023/10/26 06:47:55;;;;;;;147.73;31.55;;;8.70;99.90;;;;;;5030653;28;20036;-63
2023/10/26 06:50:22;;;;;;;108.18;30.75;;;8.70;99.90;;;;;;5032131;28;20146;-63
2023/10/26 06:52:48;;;;;;;197.18;28.58;;;8.70;99.90;;;;;;5045942;28;20553;-63
2023/10/26 06:55:16;;;;;;;238.55;30.75;;;8.80;99.90;;;;;;5022980;28;20063;-62
2023/10/26 06:57:42;;;;;;;117.20;24.08;;;8.80;99.90;;;;;;5037959;28;20045;-63
2023/10/26 07:00:09;;;;;;;207.88;24.63;;;8.70;99.90;;;;;;5020825;28;20048;-62
2023/10/26 07:02:36;;;;;;;243.93;29.05;;;8.70;99.90;;;;;;5021793;28;20059;-63
2023/10/26 07:05:04;;;;;;;174.13;24.00;;;8.70;99.90;;;;;;5029774;28;20052;-63
2023/10/26 07:07:33;;;;;;;237.85;25.15;;;8.70;99.90;;;;;;5037507;28;20515;-62
2023/10/26 07:09:58;;;;;;;185.77;24.77;;;8.70;99.90;;;;;;5021670;28;20048;-63
2023/10/26 07:12:24;;;;;;;220.98;25.63;;;8.70;99.90;;;;;;5038636;28;20399;-63
2023/10/26 07:14:54;;;;;;;187.73;25.13;;;8.70;99.90;;;;;;5009891;28;20055;-63
2023/10/26 07:17:23;;;;;;;107.80;22.40;;;8.70;99.90;;;;;;5024906;28;20048;-63
2023/10/26 07:19:50;;;;;;;49.67;22.27;;;8.70;99.90;;;;;;5040126;28;20084;-63
2023/10/26 07:22:16;;;;;;;59.88;24.23;;;8.70;99.90;;;;;;5038337;28;20041;-63
2023/10/26 07:24:42;;;;;;;177.27;27.67;;;8.70;99.90;;;;;;5038275;28;20102;-63
2023/10/26 07:27:08;;;;;;;69.28;24.15;;;8.80;99.90;;;;;;5039869;28;20132;-63
2023/10/26 07:29:34;;;;;;;49.67;24.55;;;8.80;99.90;;;;;;5040352;28;20045;-63
2023/10/26 07:32:00;;;;;;;49.17;25.98;;;8.80;99.90;;;;;;5022427;28;20048;-63
2023/10/26 07:34:25;;;;;;;51.40;27.40;;;8.90;99.90;;;;;;5034529;28;20048;-63
2023/10/26 07:36:51;;;;;;;54.75;27.10;;;8.90;99.90;;;;;;5020250;28;20045;-63
2023/10/26 07:39:17;;;;;;;56.55;28.77;;;9.00;99.90;;;;;;5037633;28;20285;-62
2023/10/26 07:41:43;;;;;;;58.95;27.95;;;9.00;99.90;;;;;;5035578;28;20048;-63
2023/10/26 07:44:09;;;;;;;57.80;28.95;;;9.10;99.90;;;;;;5039296;28;20040;-63
2023/10/26 07:46:35;;;;;;;58.50;29.95;;;9.10;99.90;;;;;;5037139;28;20575;-62
2023/10/26 07:49:02;;;;;;;56.40;28.80;;;9.10;99.90;;;;;;5020632;28;20136;-63
2023/10/26 07:51:28;;;;;;;60.70;28.92;;;9.20;99.90;;;;;;5037660;28;20045;-63
2023/10/26 07:53:54;;;;;;;68.18;30.48;;;9.20;99.90;;;;;;4989083;28;20845;-63
2023/10/26 07:56:20;;;;;;;67.25;30.90;;;9.30;99.90;;;;;;5023808;28;20098;-62
2023/10/26 07:58:46;;;;;;;65.40;30.98;;;9.30;99.90;;;;;;5035266;28;20155;-64
2023/10/26 08:01:12;;;;;;;70.68;31.17;;;9.30;99.90;;;;;;5020351;28;20048;-63
2023/10/26 08:03:38;;;;;;;76.85;33.20;;;9.30;99.90;;;;;;5020277;28;20041;-62
2023/10/26 08:06:06;;;;;;;75.55;32.78;;;9.30;99.90;;;;;;5016810;28;20060;-62
2023/10/26 08:08:32;;;;;;;75.35;33.03;;;9.40;99.90;;;;;;5021600;28;20040;-63
2023/10/26 08:11:16;;;;;;;73.82;33.80;;;9.40;99.90;;;;;;5021692;28;20213;-63
2023/10/26 08:13:42;;;;;;;82.85;33.92;;;9.50;99.90;;;;;;5022812;28;20072;-63
2023/10/26 08:16:08;;;;;;;76.50;34.17;;;9.40;99.90;;;;;;5028275;28;20515;-63
2023/10/26 08:18:35;;;;;;;75.50;34.45;;;9.50;99.90;;;;;;5027002;28;20045;-62
2023/10/26 08:21:03;;;;;;;77.53;34.33;;;9.50;99.90;;;;;;5048541;28;20163;-63
2023/10/26 08:23:31;;;;;;;76.22;34.40;;;9.60;99.90;;;;;;5040040;28;20048;-62
2023/10/26 08:25:57;;;;;;;74.50;34.70;;;9.60;99.90;;;;;;5046930;28;20041;-63
2023/10/26 08:28:23;;;;;;;69.45;32.88;;;9.60;99.90;;;;;;5043371;28;20657;-62
2023/10/26 08:30:50;;;;;;;73.75;34.38;;;9.70;99.90;;;;;;5027149;28;20079;-63
2023/10/26 08:33:16;;;;;;;69.65;34.85;;;9.70;99.90;;;;;;5023558;28;20479;-63
2023/10/26 08:35:51;;;;;;;72.60;34.10;;;9.70;99.90;;;;;;5053681;28;20128;-63
2023/10/26 08:38:17;;;;;;;68.72;33.00;;;9.70;99.90;;;;;;5049621;28;20044;-63
2023/10/26 08:40:53;;;;;;;61.50;31.33;;;9.70;99.90;;;;;;5050523;28;20051;-63
2023/10/26 08:43:20;;;;;;;57.47;30.08;;;9.80;99.90;;;;;;5025843;28;20120;-63
2023/10/26 08:45:47;;;;;;;61.80;30.67;;;9.80;99.90;;;;;;5050415;28;20478;-63
2023/10/26 08:48:19;;;;;;;57.63;29.67;;;9.80;99.90;;;;;;5024867;28;20040;-62
2023/10/26 08:50:46;;;;;;;65.95;30.23;;;9.80;99.90;;;;;;5029487;28;20084;-63
2023/10/26 08:53:12;;;;;;;57.58;29.00;;;9.90;99.90;;;;;;5027641;28;20118;-63
2023/10/26 08:55:39;;;;;;;54.03;28.77;;;9.90;99.90;;;;;;5022281;28;20118;-63
2023/10/26 08:58:06;;;;;;;54.50;29.48;;;9.90;99.90;;;;;;5048945;28;20041;-64
2023/10/26 09:00:32;;;;;;;49.13;26.85;;;10.00;99.90;;;;;;5049626;28;20051;-63
2023/10/26 09:02:58;;;;;;;48.38;26.33;;;10.00;99.90;;;;;;5032795;28;20051;-63
2023/10/26 09:05:24;;;;;;;45.35;27.38;;;10.00;99.90;;;;;;5032523;28;20492;-63
2023/10/26 09:07:53;;;;;;;47.58;26.25;;;10.10;99.90;;;;;;5042433;28;20098;-63
2023/10/26 09:10:30;;;;;;;44.10;27.27;;;10.10;99.90;;;;;;5029905;28;20041;-62
2023/10/26 09:13:00;;;;;;;43.95;26.25;;;10.00;99.90;;;;;;5023326;28;20134;-63
2023/10/26 09:15:27;;;;;;;43.78;25.92;;;10.00;99.90;;;;;;5039671;28;20052;-62
2023/10/26 09:17:57;;;;;;;44.25;26.02;;;10.00;99.90;;;;;;5010456;28;20435;-62
2023/10/26 09:20:24;;;;;;;48.28;26.08;;;10.00;99.90;;;;;;5041778;28;20048;-63
2023/10/26 09:22:50;;;;;;;43.97;26.08;;;10.00;99.90;;;;;;5023946;28;20055;-62
2023/10/26 09:25:16;;;;;;;39.85;24.77;;;10.00;99.90;;;;;;5031218;28;20087;-63
2023/10/26 09:27:43;;;;;;;45.13;24.30;;;10.00;99.90;;;;;;5031171;28;20041;-64
2023/10/26 09:30:28;;;;;;;41.38;24.38;;;10.00;99.90;;;;;;5051071;28;20051;-63
2023/10/26 09:32:55;;;;;;;43.95;24.73;;;10.00;99.90;;;;;;5049403;28;20389;-62
2023/10/26 09:35:29;;;;;;;38.75;23.65;;;10.00;99.90;;;;;;5050599;28;20045;-63
2023/10/26 09:37:55;;;;;;;42.75;25.35;;;10.00;99.90;;;;;;5007721;28;20051;-63
2023/10/26 09:40:22;;;;;;;43.08;25.00;;;10.10;99.90;;;;;;5040722;28;20044;-63
2023/10/26 09:42:49;;;;;;;38.63;23.30;;;10.10;99.90;;;;;;5036075;28;20047;-63
2023/10/26 09:45:19;;;;;;;37.50;23.83;;;10.10;99.90;;;;;;5040797;28;20140;-63
2023/10/26 09:47:46;;;;;;;36.78;23.95;;;10.10;99.90;;;;;;5041842;28;20041;-63
2023/10/26 09:50:13;;;;;;;43.17;24.33;;;10.20;99.90;;;;;;5041010;28;20045;-63
2023/10/26 09:52:42;;;;;;;40.30;24.85;;;10.20;99.90;;;;;;5019517;28;20060;-62
2023/10/26 09:55:10;;;;;;;44.03;26.73;;;10.20;99.90;;;;;;5036618;28;20076;-63
2023/10/26 09:58:03;;;;;;;39.53;25.05;;;10.20;99.90;;;;;;5040057;28;20463;-63
2023/10/26 10:00:34;;;;;;;42.00;25.10;;;10.30;99.90;;;;;;5015297;28;20033;-62
2023/10/26 10:03:13;;;;;;;39.85;24.48;;;10.40;99.90;;;;;;5006306;28;20735;-61
2023/10/26 10:05:40;;;;;;;44.80;24.60;;;10.40;99.90;;;;;;5021637;28;20045;-64
2023/10/26 10:08:06;;;;;;;39.67;25.08;;;10.50;99.90;;;;;;5006985;28;20420;-63
2023/10/26 10:10:33;;;;;;;48.35;26.75;;;10.50;99.90;;;;;;5022753;28;20043;-62
2023/10/26 10:13:00;;;;;;;44.20;26.50;;;10.60;99.90;;;;;;5010837;28;20041;-63
2023/10/26 10:15:38;;;;;;;47.38;28.13;;;10.70;99.90;;;;;;5026571;28;20052;-61
2023/10/26 10:18:06;;;;;;;43.28;26.23;;;10.70;99.90;;;;;;5025945;28;20175;-62
2023/10/26 10:20:34;;;;;;;44.22;27.20;;;10.80;99.90;;;;;;5007048;28;20067;-62
2023/10/26 10:23:00;;;;;;;45.55;26.65;;;10.80;99.90;;;;;;5028717;28;20048;-61
2023/10/26 10:25:48;;;;;;;46.47;26.80;;;10.80;99.90;;;;;;5013505;28;20510;-61
2023/10/26 10:28:14;;;;;;;44.08;26.20;;;10.80;99.90;;;;;;5009524;28;20053;-63
2023/10/26 10:30:58;;;;;;;44.42;26.70;;;10.80;99.90;;;;;;5031415;28;20033;-63
2023/10/26 10:33:25;;;;;;;45.05;27.65;;;10.80;99.90;;;;;;5015740;28;20044;-63
2023/10/26 10:36:03;;;;;;;45.20;26.25;;;10.80;99.90;;;;;;5029453;28;20086;-63
2023/10/26 10:38:30;;;;;;;42.13;27.10;;;10.90;99.90;;;;;;5030355;28;20037;-62
2023/10/26 10:40:59;;;;;;;42.60;26.17;;;10.90;99.90;;;;;;5030005;28;20038;-62
2023/10/26 10:43:45;;;;;;;43.10;25.95;;;10.90;99.90;;;;;;5015278;28;20390;-63
2023/10/26 10:46:21;;;;;;;46.97;25.58;;;11.00;99.90;;;;;;5032066;28;20048;-63
2023/10/26 10:48:54;;;;;;;43.90;25.63;;;11.00;99.90;;;;;;5035441;28;20036;-63
2023/10/26 10:51:20;;;;;;;44.70;27.13;;;11.00;99.90;;;;;;5031542;28;20087;-63
2023/10/26 10:53:50;;;;;;;44.65;26.42;;;11.00;99.90;;;;;;5016838;28;20072;-64
2023/10/26 10:56:16;;;;;;;44.97;28.27;;;11.00;99.90;;;;;;5032223;28;20080;-61
2023/10/26 10:58:41;;;;;;;44.08;27.67;;;11.00;99.90;;;;;;5029964;28;20127;-63
2023/10/26 11:01:07;;;;;;;46.33;28.75;;;11.00;99.90;;;;;;5010990;28;20063;-63
2023/10/26 11:03:33;;;;;;;43.45;27.02;;;11.10;99.90;;;;;;5032881;28;20051;-62
2023/10/26 11:05:59;;;;;;;43.65;27.27;;;11.10;99.90;;;;;;5037699;28;20068;-63
2023/10/26 11:08:25;;;;;;;40.92;26.05;;;11.10;99.90;;;;;;5033015;28;20091;-63
2023/10/26 11:10:51;;;;;;;42.75;25.58;;;11.10;99.90;;;;;;5016196;28;20052;-63
2023/10/26 11:13:19;;;;;;;40.85;26.23;;;11.10;99.90;;;;;;5034057;28;20045;-63
2023/10/26 11:15:45;;;;;;;39.53;26.13;;;11.10;99.90;;;;;;5035350;28;20105;-63
2023/10/26 11:18:11;;;;;;;44.65;27.35;;;11.10;99.90;;;;;;5018147;28;20049;-61
2023/10/26 11:20:41;;;;;;;44.90;28.23;;;11.10;99.90;;;;;;5037002;28;20084;-63
2023/10/26 11:23:10;;;;;;;46.53;27.70;;;11.10;99.90;;;;;;5033007;28;20037;-63
2023/10/26 11:25:36;;;;;;;43.85;27.67;;;11.20;99.90;;;;;;5016851;28;20041;-63
2023/10/26 11:28:03;;;;;;;45.40;27.35;;;11.20;99.90;;;;;;4976382;28;20852;-61
2023/10/26 11:30:44;;;;;;;44.28;28.25;;;11.20;99.90;;;;;;5026339;28;20044;-63
2023/10/26 11:33:09;;;;;;;40.83;27.55;;;11.20;99.90;;;;;;5007346;28;20056;-62
2023/10/26 11:35:42;;;;;;;48.60;29.10;;;11.20;99.90;;;;;;5031593;28;23791;-63
2023/10/26 11:38:08;;;;;;;;;;;11.20;99.90;;;;;;5032093;28;20067;-63
2023/10/26 11:40:33;;;;;;;39.40;26.33;;;11.20;99.90;;;;;;5019254;28;20654;-63
2023/10/26 11:43:02;;;;;;;44.45;27.77;;;11.20;99.90;;;;;;5019223;28;20077;-63
2023/10/26 11:45:29;;;;;;;46.63;28.88;;;11.20;99.90;;;;;;5041832;28;20496;-63
2023/10/26 11:47:57;;;;;;;45.70;29.33;;;11.20;99.90;;;;;;5023243;28;20149;-63
2023/10/26 11:50:28;;;;;;;41.80;27.52;;;11.20;99.90;;;;;;5026097;28;20143;-62
2023/10/26 11:52:56;;;;;;;46.42;27.13;;;11.30;99.90;;;;;;5029924;28;20057;-63
2023/10/26 11:55:22;;;;;;;46.35;27.55;;;11.30;99.90;;;;;;5028249;28;20044;-63
2023/10/26 11:57:49;;;;;;;40.60;26.52;;;11.30;99.90;;;;;;5029291;28;20047;-62
2023/10/26 12:00:16;;;;;;;49.55;27.50;;;11.40;99.90;;;;;;5032006;28;20501;-62
2023/10/26 12:02:42;;;;;;;43.00;27.83;;;11.40;99.90;;;;;;5027651;28;20040;-63
2023/10/26 12:05:15;;;;;;;43.58;26.60;;;11.40;99.90;;;;;;5013745;28;20049;-63
2023/10/26 12:07:42;;;;;;;41.65;26.85;;;11.30;99.90;;;;;;5030349;28;20045;-63
2023/10/26 12:10:08;;;;;;;43.22;27.35;;;11.30;99.90;;;;;;5032839;28;20145;-63
2023/10/26 12:12:34;;;;;;;40.97;26.13;;;11.30;99.90;;;;;;5016932;28;20055;-63
2023/10/26 12:14:59;;;;;;;41.22;26.13;;;11.40;99.90;;;;;;5029200;28;20456;-63
2023/10/26 12:17:25;;;;;;;39.88;25.60;;;11.40;99.90;;;;;;5021767;28;20044;-63
2023/10/26 12:19:51;;;;;;;42.30;26.40;;;11.40;99.90;;;;;;5037506;28;20041;-63
2023/10/26 12:22:17;;;;;;;46.38;26.00;;;11.40;99.90;;;;;;5023140;28;20043;-63
2023/10/26 12:24:43;;;;;;;42.83;26.67;;;11.40;99.90;;;;;;5044576;28;20079;-63
2023/10/26 12:27:09;;;;;;;42.83;26.35;;;11.30;99.90;;;;;;5025902;28;20060;-63
2023/10/26 12:29:34;;;;;;;43.45;28.08;;;11.30;99.90;;;;;;5043589;28;20503;-64
2023/10/26 12:32:00;;;;;;;43.15;26.23;;;11.30;99.90;;;;;;5035970;28;20037;-62